sensor_id;sensor_type;location;lat;lon;timestamp;temperature;humidity
18712;DHT22;9485;49.386;8.674;2023-08-06T00:02:35;20.70;79.60
18712;DHT22;9485;49.386;8.674;2023-08-06T00:07:56;20.70;79.80
18712;DHT22;9485;49.386;8.674;2023-08-06T00:13:18;20.60;79.70
18712;DHT22;9485;49.386;8.674;2023-08-06T00:18:39;20.60;79.60
18712;DHT22;9485;49.386;8.674;2023-08-06T00:24:00;20.60;79.80
18712;DHT22;9485;49.386;8.674;2023-08-06T00:29:22;20.60;80.00
18712;DHT22;9485;49.386;8.674;2023-08-06T00:34:42;20.50;79.90
18712;DHT22;9485;49.386;8.674;2023-08-06T00:40:04;20.60;80.10
18712;DHT22;9485;49.386;8.674;2023-08-06T00:45:27;20.60;80.10
18712;DHT22;9485;49.386;8.674;2023-08-06T00:50:50;20.60;79.90
18712;DHT22;9485;49.386;8.674;2023-08-06T00:56:12;20.60;80.00
18712;DHT22;9485;49.386;8.674;2023-08-06T01:01:35;20.70;80.00
18712;DHT22;9485;49.386;8.674;2023-08-06T01:07:02;20.70;79.90
18712;DHT22;9485;49.386;8.674;2023-08-06T01:12:33;20.70;79.80
18712;DHT22;9485;49.386;8.674;2023-08-06T01:18:01;20.70;79.80
18712;DHT22;9485;49.386;8.674;2023-08-06T01:23:24;20.80;79.90
18712;DHT22;9485;49.386;8.674;2023-08-06T01:28:54;20.80;79.80
18712;DHT22;9485;49.386;8.674;2023-08-06T01:34:23;20.80;79.40
18712;DHT22;9485;49.386;8.674;2023-08-06T01:39:46;20.90;79.60
18712;DHT22;9485;49.386;8.674;2023-08-06T01:45:07;20.90;79.60
18712;DHT22;9485;49.386;8.674;2023-08-06T01:50:32;20.90;79.50
18712;DHT22;9485;49.386;8.674;2023-08-06T01:55:54;20.90;79.40
18712;DHT22;9485;49.386;8.674;2023-08-06T02:01:14;20.90;79.00
18712;DHT22;9485;49.386;8.674;2023-08-06T02:06:35;20.90;79.10
18712;DHT22;9485;49.386;8.674;2023-08-06T02:11:56;20.90;79.10
18712;DHT22;9485;49.386;8.674;2023-08-06T02:17:17;20.80;78.90
18712;DHT22;9485;49.386;8.674;2023-08-06T02:22:38;20.90;79.00
18712;DHT22;9485;49.386;8.674;2023-08-06T02:28:00;20.90;79.00
18712;DHT22;9485;49.386;8.674;2023-08-06T02:33:21;20.90;78.70
18712;DHT22;9485;49.386;8.674;2023-08-06T02:38:41;21.00;79.00
18712;DHT22;9485;49.386;8.674;2023-08-06T02:44:03;21.00;79.00
18712;DHT22;9485;49.386;8.674;2023-08-06T02:49:24;21.00;78.70
18712;DHT22;9485;49.386;8.674;2023-08-06T02:54:45;21.00;78.70
18712;DHT22;9485;49.386;8.674;2023-08-06T03:00:09;21.00;78.60
18712;DHT22;9485;49.386;8.674;2023-08-06T03:05:31;21.00;78.30
18712;DHT22;9485;49.386;8.674;2023-08-06T03:10:52;21.00;78.60
18712;DHT22;9485;49.386;8.674;2023-08-06T03:16:14;21.00;78.50
18712;DHT22;9485;49.386;8.674;2023-08-06T03:21:36;21.00;78.30
18712;DHT22;9485;49.386;8.674;2023-08-06T03:26:58;21.00;78.50
18712;DHT22;9485;49.386;8.674;2023-08-06T03:32:20;20.90;78.50
18712;DHT22;9485;49.386;8.674;2023-08-06T03:37:41;21.00;78.50
18712;DHT22;9485;49.386;8.674;2023-08-06T03:43:01;21.00;78.80
18712;DHT22;9485;49.386;8.674;2023-08-06T03:48:23;20.90;78.70
18712;DHT22;9485;49.386;8.674;2023-08-06T03:53:44;20.90;78.60
18712;DHT22;9485;49.386;8.674;2023-08-06T03:59:05;20.90;78.70
18712;DHT22;9485;49.386;8.674;2023-08-06T04:04:27;20.90;78.60
18712;DHT22;9485;49.386;8.674;2023-08-06T04:09:55;20.90;78.40
18712;DHT22;9485;49.386;8.674;2023-08-06T04:15:18;20.80;78.00
18712;DHT22;9485;49.386;8.674;2023-08-06T04:20:44;20.80;78.40
18712;DHT22;9485;49.386;8.674;2023-08-06T04:26:04;20.70;77.90
18712;DHT22;9485;49.386;8.674;2023-08-06T04:31:28;20.60;78.40
18712;DHT22;9485;49.386;8.674;2023-08-06T04:36:51;20.60;78.30
18712;DHT22;9485;49.386;8.674;2023-08-06T04:42:12;20.50;78.30
18712;DHT22;9485;49.386;8.674;2023-08-06T04:47:33;20.50;78.60
18712;DHT22;9485;49.386;8.674;2023-08-06T04:52:55;20.40;78.60
18712;DHT22;9485;49.386;8.674;2023-08-06T04:58:15;20.40;78.50
18712;DHT22;9485;49.386;8.674;2023-08-06T05:03:36;20.40;78.70
18712;DHT22;9485;49.386;8.674;2023-08-06T05:08:57;20.30;78.70
18712;DHT22;9485;49.386;8.674;2023-08-06T05:14:18;20.30;78.70
18712;DHT22;9485;49.386;8.674;2023-08-06T05:19:39;20.30;78.80
18712;DHT22;9485;49.386;8.674;2023-08-06T05:25:00;20.20;78.80
18712;DHT22;9485;49.386;8.674;2023-08-06T05:30:21;20.10;78.80
18712;DHT22;9485;49.386;8.674;2023-08-06T05:35:42;19.90;78.90
18712;DHT22;9485;49.386;8.674;2023-08-06T05:41:04;19.70;79.50
18712;DHT22;9485;49.386;8.674;2023-08-06T05:46:24;19.40;80.10
18712;DHT22;9485;49.386;8.674;2023-08-06T05:51:45;19.20;81.20
18712;DHT22;9485;49.386;8.674;2023-08-06T05:57:07;19.00;82.20
18712;DHT22;9485;49.386;8.674;2023-08-06T06:02:28;18.80;83.30
18712;DHT22;9485;49.386;8.674;2023-08-06T06:07:48;18.70;84.10
18712;DHT22;9485;49.386;8.674;2023-08-06T06:13:11;18.70;84.90
18712;DHT22;9485;49.386;8.674;2023-08-06T06:18:32;18.60;86.00
18712;DHT22;9485;49.386;8.674;2023-08-06T06:23:52;18.60;85.90
18712;DHT22;9485;49.386;8.674;2023-08-06T06:29:14;18.50;86.50
18712;DHT22;9485;49.386;8.674;2023-08-06T06:34:35;18.50;86.90
18712;DHT22;9485;49.386;8.674;2023-08-06T06:39:55;18.50;87.20
18712;DHT22;9485;49.386;8.674;2023-08-06T06:45:17;18.50;87.60
18712;DHT22;9485;49.386;8.674;2023-08-06T06:50:38;18.60;88.70
18712;DHT22;9485;49.386;8.674;2023-08-06T06:56:02;18.50;88.40
18712;DHT22;9485;49.386;8.674;2023-08-06T07:01:25;18.60;88.60
18712;DHT22;9485;49.386;8.674;2023-08-06T07:06:47;18.70;89.00
18712;DHT22;9485;49.386;8.674;2023-08-06T07:12:08;18.70;89.10
18712;DHT22;9485;49.386;8.674;2023-08-06T07:17:30;18.70;89.40
18712;DHT22;9485;49.386;8.674;2023-08-06T07:22:50;18.80;89.40
18712;DHT22;9485;49.386;8.674;2023-08-06T07:28:11;18.90;89.70
18712;DHT22;9485;49.386;8.674;2023-08-06T07:33:33;18.90;89.70
18712;DHT22;9485;49.386;8.674;2023-08-06T07:38:53;19.00;90.10
18712;DHT22;9485;49.386;8.674;2023-08-06T07:44:16;19.10;90.10
18712;DHT22;9485;49.386;8.674;2023-08-06T07:49:37;19.20;90.10
18712;DHT22;9485;49.386;8.674;2023-08-06T07:54:58;19.30;90.00
18712;DHT22;9485;49.386;8.674;2023-08-06T08:00:20;19.30;89.90
18712;DHT22;9485;49.386;8.674;2023-08-06T08:05:43;19.30;89.80
18712;DHT22;9485;49.386;8.674;2023-08-06T08:11:04;19.40;89.60
18712;DHT22;9485;49.386;8.674;2023-08-06T08:16:25;19.40;90.00
18712;DHT22;9485;49.386;8.674;2023-08-06T08:21:47;19.40;90.20
18712;DHT22;9485;49.386;8.674;2023-08-06T08:27:07;19.50;90.30
18712;DHT22;9485;49.386;8.674;2023-08-06T08:32:28;19.70;90.40
18712;DHT22;9485;49.386;8.674;2023-08-06T08:37:50;19.70;90.40
18712;DHT22;9485;49.386;8.674;2023-08-06T08:43:21;19.90;89.60
18712;DHT22;9485;49.386;8.674;2023-08-06T08:48:42;20.00;90.20
18712;DHT22;9485;49.386;8.674;2023-08-06T08:54:04;20.00;90.20
18712;DHT22;9485;49.386;8.674;2023-08-06T08:59:28;20.00;90.30
18712;DHT22;9485;49.386;8.674;2023-08-06T09:04:49;20.00;90.40
18712;DHT22;9485;49.386;8.674;2023-08-06T09:10:11;20.10;90.50
18712;DHT22;9485;49.386;8.674;2023-08-06T09:15:36;20.20;90.80
18712;DHT22;9485;49.386;8.674;2023-08-06T09:20:58;20.40;90.70
18712;DHT22;9485;49.386;8.674;2023-08-06T09:26:19;20.40;90.30
18712;DHT22;9485;49.386;8.674;2023-08-06T09:31:42;20.40;90.10
18712;DHT22;9485;49.386;8.674;2023-08-06T09:37:04;20.50;90.30
18712;DHT22;9485;49.386;8.674;2023-08-06T09:42:25;20.60;90.90
18712;DHT22;9485;49.386;8.674;2023-08-06T09:47:48;20.70;90.80
18712;DHT22;9485;49.386;8.674;2023-08-06T09:53:09;20.90;90.50
18712;DHT22;9485;49.386;8.674;2023-08-06T09:58:31;20.90;90.50
18712;DHT22;9485;49.386;8.674;2023-08-06T10:03:54;21.00;90.10
18712;DHT22;9485;49.386;8.674;2023-08-06T10:09:17;20.80;90.10
18712;DHT22;9485;49.386;8.674;2023-08-06T10:14:39;20.60;90.30
18712;DHT22;9485;49.386;8.674;2023-08-06T10:20:06;20.40;90.40
18712;DHT22;9485;49.386;8.674;2023-08-06T10:25:31;20.30;90.50
18712;DHT22;9485;49.386;8.674;2023-08-06T10:30:52;20.20;90.70
18712;DHT22;9485;49.386;8.674;2023-08-06T10:36:15;20.00;90.80
18712;DHT22;9485;49.386;8.674;2023-08-06T10:41:36;20.00;91.30
18712;DHT22;9485;49.386;8.674;2023-08-06T10:47:26;19.90;90.90
18712;DHT22;9485;49.386;8.674;2023-08-06T10:52:48;19.80;91.00
18712;DHT22;9485;49.386;8.674;2023-08-06T10:58:09;19.70;91.30
18712;DHT22;9485;49.386;8.674;2023-08-06T11:03:36;19.60;91.30
18712;DHT22;9485;49.386;8.674;2023-08-06T11:08:58;19.50;91.30
18712;DHT22;9485;49.386;8.674;2023-08-06T11:14:19;19.40;91.30
18712;DHT22;9485;49.386;8.674;2023-08-06T11:19:41;19.30;91.30
18712;DHT22;9485;49.386;8.674;2023-08-06T11:25:04;19.20;91.50
18712;DHT22;9485;49.386;8.674;2023-08-06T11:30:27;19.20;91.70
18712;DHT22;9485;49.386;8.674;2023-08-06T11:35:48;19.20;91.70
18712;DHT22;9485;49.386;8.674;2023-08-06T11:41:12;19.10;91.80
18712;DHT22;9485;49.386;8.674;2023-08-06T11:46:50;19.10;92.00
18712;DHT22;9485;49.386;8.674;2023-08-06T11:52:17;19.20;92.20
18712;DHT22;9485;49.386;8.674;2023-08-06T11:57:44;19.20;92.20
18712;DHT22;9485;49.386;8.674;2023-08-06T12:03:06;19.20;92.20
18712;DHT22;9485;49.386;8.674;2023-08-06T12:08:26;19.30;92.30
18712;DHT22;9485;49.386;8.674;2023-08-06T12:13:52;19.30;92.40
18712;DHT22;9485;49.386;8.674;2023-08-06T12:19:12;19.30;92.10
18712;DHT22;9485;49.386;8.674;2023-08-06T12:24:33;19.40;92.10
18712;DHT22;9485;49.386;8.674;2023-08-06T12:29:55;19.40;92.20
18712;DHT22;9485;49.386;8.674;2023-08-06T12:35:16;19.40;92.10
18712;DHT22;9485;49.386;8.674;2023-08-06T12:40:37;19.40;92.20
18712;DHT22;9485;49.386;8.674;2023-08-06T12:45:59;19.40;92.20
18712;DHT22;9485;49.386;8.674;2023-08-06T12:51:19;19.50;92.10
18712;DHT22;9485;49.386;8.674;2023-08-06T12:56:40;19.50;92.20
18712;DHT22;9485;49.386;8.674;2023-08-06T13:02:03;19.60;92.20
18712;DHT22;9485;49.386;8.674;2023-08-06T13:07:23;19.80;92.30
18712;DHT22;9485;49.386;8.674;2023-08-06T13:12:44;19.70;92.30
18712;DHT22;9485;49.386;8.674;2023-08-06T13:18:06;19.80;92.30
18712;DHT22;9485;49.386;8.674;2023-08-06T13:23:26;19.90;92.20
18712;DHT22;9485;49.386;8.674;2023-08-06T13:28:47;20.00;92.10
18712;DHT22;9485;49.386;8.674;2023-08-06T13:34:10;20.00;92.10
18712;DHT22;9485;49.386;8.674;2023-08-06T13:39:30;20.10;92.00
18712;DHT22;9485;49.386;8.674;2023-08-06T13:44:51;20.10;92.10
18712;DHT22;9485;49.386;8.674;2023-08-06T13:50:13;20.10;91.50
18712;DHT22;9485;49.386;8.674;2023-08-06T13:55:34;20.10;91.50
18712;DHT22;9485;49.386;8.674;2023-08-06T14:00:55;20.00;91.40
18712;DHT22;9485;49.386;8.674;2023-08-06T14:06:18;20.00;91.50
18712;DHT22;9485;49.386;8.674;2023-08-06T14:11:38;20.00;91.60
18712;DHT22;9485;49.386;8.674;2023-08-06T14:17:00;20.00;91.80
18712;DHT22;9485;49.386;8.674;2023-08-06T14:22:26;20.00;91.70
18712;DHT22;9485;49.386;8.674;2023-08-06T14:27:46;20.10;91.60
18712;DHT22;9485;49.386;8.674;2023-08-06T14:33:07;20.10;91.70
18712;DHT22;9485;49.386;8.674;2023-08-06T14:38:29;20.00;91.60
18712;DHT22;9485;49.386;8.674;2023-08-06T14:43:50;20.00;91.70
18712;DHT22;9485;49.386;8.674;2023-08-06T14:49:11;20.00;91.70
18712;DHT22;9485;49.386;8.674;2023-08-06T14:54:33;19.90;91.80
18712;DHT22;9485;49.386;8.674;2023-08-06T14:59:54;19.90;91.80
18712;DHT22;9485;49.386;8.674;2023-08-06T15:05:15;19.80;91.80
18712;DHT22;9485;49.386;8.674;2023-08-06T15:10:37;19.80;91.90
18712;DHT22;9485;49.386;8.674;2023-08-06T15:15:58;19.70;92.10
18712;DHT22;9485;49.386;8.674;2023-08-06T15:21:18;19.60;92.30
18712;DHT22;9485;49.386;8.674;2023-08-06T15:26:40;19.60;92.10
18712;DHT22;9485;49.386;8.674;2023-08-06T15:32:02;19.50;92.00
18712;DHT22;9485;49.386;8.674;2023-08-06T15:37:23;19.40;92.20
18712;DHT22;9485;49.386;8.674;2023-08-06T15:42:45;19.30;92.60
18712;DHT22;9485;49.386;8.674;2023-08-06T15:48:06;19.30;92.70
18712;DHT22;9485;49.386;8.674;2023-08-06T15:53:28;19.30;92.70
18712;DHT22;9485;49.386;8.674;2023-08-06T15:58:52;19.30;92.80
18712;DHT22;9485;49.386;8.674;2023-08-06T16:04:13;19.20;92.70
18712;DHT22;9485;49.386;8.674;2023-08-06T16:09:33;19.20;92.60
18712;DHT22;9485;49.386;8.674;2023-08-06T16:14:56;19.20;92.60
18712;DHT22;9485;49.386;8.674;2023-08-06T16:20:17;19.10;92.80
18712;DHT22;9485;49.386;8.674;2023-08-06T16:25:38;19.10;93.00
18712;DHT22;9485;49.386;8.674;2023-08-06T16:31:05;19.20;93.30
18712;DHT22;9485;49.386;8.674;2023-08-06T16:36:27;19.10;92.80
18712;DHT22;9485;49.386;8.674;2023-08-06T16:41:48;19.10;92.90
18712;DHT22;9485;49.386;8.674;2023-08-06T16:47:11;19.10;92.80
18712;DHT22;9485;49.386;8.674;2023-08-06T16:52:32;19.10;92.80
18712;DHT22;9485;49.386;8.674;2023-08-06T16:57:53;19.10;92.90
18712;DHT22;9485;49.386;8.674;2023-08-06T17:03:16;19.00;92.90
18712;DHT22;9485;49.386;8.674;2023-08-06T17:08:37;19.10;92.80
18712;DHT22;9485;49.386;8.674;2023-08-06T17:13:58;19.10;92.80
18712;DHT22;9485;49.386;8.674;2023-08-06T17:19:20;19.00;92.80
18712;DHT22;9485;49.386;8.674;2023-08-06T17:24:41;19.10;92.90
18712;DHT22;9485;49.386;8.674;2023-08-06T17:30:02;19.10;93.00
18712;DHT22;9485;49.386;8.674;2023-08-06T17:35:25;19.10;92.90
18712;DHT22;9485;49.386;8.674;2023-08-06T17:40:53;19.10;92.80
18712;DHT22;9485;49.386;8.674;2023-08-06T17:46:14;19.10;92.50
18712;DHT22;9485;49.386;8.674;2023-08-06T17:51:36;19.10;92.40
18712;DHT22;9485;49.386;8.674;2023-08-06T17:56:57;19.00;92.30
18712;DHT22;9485;49.386;8.674;2023-08-06T18:02:18;19.00;92.30
18712;DHT22;9485;49.386;8.674;2023-08-06T18:07:41;19.00;92.40
18712;DHT22;9485;49.386;8.674;2023-08-06T18:13:02;18.90;92.20
18712;DHT22;9485;49.386;8.674;2023-08-06T18:18:23;18.90;92.30
18712;DHT22;9485;49.386;8.674;2023-08-06T18:23:45;18.90;92.30
18712;DHT22;9485;49.386;8.674;2023-08-06T18:29:06;19.00;92.30
18712;DHT22;9485;49.386;8.674;2023-08-06T18:34:27;18.90;92.20
18712;DHT22;9485;49.386;8.674;2023-08-06T18:39:49;18.90;92.00
18712;DHT22;9485;49.386;8.674;2023-08-06T18:45:10;18.90;91.90
18712;DHT22;9485;49.386;8.674;2023-08-06T18:50:31;18.90;91.90
18712;DHT22;9485;49.386;8.674;2023-08-06T18:55:56;18.90;91.90
18712;DHT22;9485;49.386;8.674;2023-08-06T19:01:17;18.80;91.70
18712;DHT22;9485;49.386;8.674;2023-08-06T19:06:37;18.70;91.70
18712;DHT22;9485;49.386;8.674;2023-08-06T19:11:59;18.70;91.70
18712;DHT22;9485;49.386;8.674;2023-08-06T19:17:21;18.70;91.50
18712;DHT22;9485;49.386;8.674;2023-08-06T19:22:42;18.70;91.30
18712;DHT22;9485;49.386;8.674;2023-08-06T19:28:04;18.70;91.40
18712;DHT22;9485;49.386;8.674;2023-08-06T19:33:30;18.60;91.20
18712;DHT22;9485;49.386;8.674;2023-08-06T19:38:51;18.60;91.30
18712;DHT22;9485;49.386;8.674;2023-08-06T19:44:14;18.50;91.30
18712;DHT22;9485;49.386;8.674;2023-08-06T19:49:34;18.50;91.20
18712;DHT22;9485;49.386;8.674;2023-08-06T19:54:55;18.50;91.60
18712;DHT22;9485;49.386;8.674;2023-08-06T20:00:17;18.50;91.20
18712;DHT22;9485;49.386;8.674;2023-08-06T20:05:38;18.50;91.10
18712;DHT22;9485;49.386;8.674;2023-08-06T20:10:59;18.50;90.80
18712;DHT22;9485;49.386;8.674;2023-08-06T20:16:21;18.40;91.00
18712;DHT22;9485;49.386;8.674;2023-08-06T20:21:41;18.40;91.00
18712;DHT22;9485;49.386;8.674;2023-08-06T20:27:03;18.40;91.10
18712;DHT22;9485;49.386;8.674;2023-08-06T20:32:26;18.40;91.00
18712;DHT22;9485;49.386;8.674;2023-08-06T20:37:46;18.40;91.00
18712;DHT22;9485;49.386;8.674;2023-08-06T20:43:07;18.40;91.00
18712;DHT22;9485;49.386;8.674;2023-08-06T20:48:30;18.30;90.90
18712;DHT22;9485;49.386;8.674;2023-08-06T20:53:51;18.20;90.90
18712;DHT22;9485;49.386;8.674;2023-08-06T20:59:12;18.20;91.00
18712;DHT22;9485;49.386;8.674;2023-08-06T21:04:33;18.10;91.10
18712;DHT22;9485;49.386;8.674;2023-08-06T21:09:54;18.00;91.20
18712;DHT22;9485;49.386;8.674;2023-08-06T21:15:16;18.00;91.40
18712;DHT22;9485;49.386;8.674;2023-08-06T21:20:38;17.90;91.50
18712;DHT22;9485;49.386;8.674;2023-08-06T21:26:00;17.80;91.50
18712;DHT22;9485;49.386;8.674;2023-08-06T21:31:22;17.90;91.50
18712;DHT22;9485;49.386;8.674;2023-08-06T21:36:46;17.80;91.90
18712;DHT22;9485;49.386;8.674;2023-08-06T21:42:09;17.80;91.60
18712;DHT22;9485;49.386;8.674;2023-08-06T21:47:30;17.70;91.70
18712;DHT22;9485;49.386;8.674;2023-08-06T21:52:52;17.60;91.80
18712;DHT22;9485;49.386;8.674;2023-08-06T21:58:13;17.50;91.90
18712;DHT22;9485;49.386;8.674;2023-08-06T22:03:33;17.50;92.00
18712;DHT22;9485;49.386;8.674;2023-08-06T22:08:56;17.50;92.10
18712;DHT22;9485;49.386;8.674;2023-08-06T22:14:16;17.40;92.20
18712;DHT22;9485;49.386;8.674;2023-08-06T22:19:37;17.40;92.40
18712;DHT22;9485;49.386;8.674;2023-08-06T22:24:59;17.40;92.40
18712;DHT22;9485;49.386;8.674;2023-08-06T22:30:20;17.40;92.40
18712;DHT22;9485;49.386;8.674;2023-08-06T22:35:41;17.30;92.40
18712;DHT22;9485;49.386;8.674;2023-08-06T22:41:02;17.30;92.40
18712;DHT22;9485;49.386;8.674;2023-08-06T22:46:26;17.30;92.50
18712;DHT22;9485;49.386;8.674;2023-08-06T22:51:46;17.30;92.60
18712;DHT22;9485;49.386;8.674;2023-08-06T22:57:09;17.30;92.70
18712;DHT22;9485;49.386;8.674;2023-08-06T23:02:30;17.30;92.70
18712;DHT22;9485;49.386;8.674;2023-08-06T23:07:50;17.30;92.80
18712;DHT22;9485;49.386;8.674;2023-08-06T23:13:12;17.20;92.80
18712;DHT22;9485;49.386;8.674;2023-08-06T23:18:33;17.30;92.80
18712;DHT22;9485;49.386;8.674;2023-08-06T23:23:53;17.20;92.80
18712;DHT22;9485;49.386;8.674;2023-08-06T23:29:15;17.20;92.80
18712;DHT22;9485;49.386;8.674;2023-08-06T23:34:36;17.20;92.80
18712;DHT22;9485;49.386;8.674;2023-08-06T23:39:57;17.20;92.70
18712;DHT22;9485;49.386;8.674;2023-08-06T23:45:18;17.20;92.80
18712;DHT22;9485;49.386;8.674;2023-08-06T23:50:39;17.20;93.10
18712;DHT22;9485;49.386;8.674;2023-08-06T23:56:00;17.10;92.70
